createdAt,value
2016-04-13T00:00:27.769Z,1001.57
2016-04-13T00:01:10.722Z,1001.61
2016-04-13T00:01:53.663Z,1001.54
2016-04-13T00:02:36.618Z,1001.55
2016-04-13T00:03:19.571Z,1001.54
2016-04-13T00:04:02.543Z,1001.54
2016-04-13T00:04:45.499Z,1001.56
2016-04-13T00:05:28.454Z,1001.59
2016-04-13T00:06:11.423Z,1001.59
2016-04-13T00:06:54.379Z,1001.61
2016-04-13T00:07:37.350Z,1001.63
2016-04-13T00:08:20.276Z,1001.62
2016-04-13T00:09:03.248Z,1001.62
2016-04-13T00:09:46.189Z,1001.67
2016-04-13T00:10:29.159Z,1001.68
2016-04-13T00:11:12.112Z,1001.66
2016-04-13T00:11:55.069Z,1001.68
2016-04-13T00:12:38.009Z,1001.7
2016-04-13T00:13:20.962Z,1001.68
2016-04-13T00:14:03.902Z,1001.66
2016-04-13T00:14:46.873Z,1001.62
2016-04-13T00:15:29.798Z,1001.66
2016-04-13T00:16:12.767Z,1001.68
2016-04-13T00:16:55.722Z,1001.68
2016-04-13T00:17:38.678Z,1001.68
2016-04-13T00:18:21.616Z,1001.66
2016-04-13T00:19:04.572Z,1001.64
2016-04-13T00:19:47.511Z,1001.65
2016-04-13T00:20:31.640Z,1001.68
2016-04-13T00:21:14.578Z,1001.65
2016-04-13T00:21:57.565Z,1001.65
2016-04-13T00:22:40.519Z,1001.64
2016-04-13T00:23:23.477Z,1001.65
2016-04-13T00:24:06.430Z,1001.66
2016-04-13T00:24:49.369Z,1001.64
2016-04-13T00:25:32.372Z,1001.65
2016-04-13T00:26:15.341Z,1001.68
2016-04-13T00:26:58.313Z,1001.68
2016-04-13T00:27:41.268Z,1001.68
2016-04-13T00:28:24.224Z,1001.66
2016-04-13T00:29:07.161Z,1001.6
2016-04-13T00:29:50.133Z,1001.63
2016-04-13T00:30:33.135Z,1001.6
2016-04-13T00:31:16.120Z,1001.62
2016-04-13T00:31:59.060Z,1001.6
2016-04-13T00:32:42.016Z,1001.65
2016-04-13T00:33:24.956Z,1001.63
2016-04-13T00:34:07.909Z,1001.56
2016-04-13T00:34:50.865Z,1001.58
2016-04-13T00:35:33.805Z,1001.53
2016-04-13T00:36:16.774Z,1001.54
2016-04-13T00:36:59.729Z,1001.54
2016-04-13T00:37:42.717Z,1001.49
2016-04-13T00:38:25.516Z,1001.51
2016-04-13T00:39:08.453Z,1001.48
2016-04-13T00:39:51.394Z,1001.42
2016-04-13T00:40:34.335Z,1001.41
2016-04-13T00:41:17.288Z,1001.37
2016-04-13T00:42:00.243Z,1001.39
2016-04-13T00:42:43.184Z,1001.38
2016-04-13T00:43:26.201Z,1001.41
2016-04-13T00:44:09.139Z,1001.39
2016-04-13T00:44:52.095Z,1001.42
2016-04-13T00:45:35.051Z,1001.39
2016-04-13T00:46:18.020Z,1001.4
2016-04-13T00:47:00.960Z,1001.36
2016-04-13T00:47:43.916Z,1001.39
2016-04-13T00:48:26.872Z,1001.4
2016-04-13T00:49:09.825Z,1001.37
2016-04-13T00:49:52.781Z,1001.38
2016-04-13T00:50:35.736Z,1001.37
2016-04-13T00:51:18.689Z,1001.38
2016-04-13T00:52:01.644Z,1001.37
2016-04-13T00:52:44.585Z,1001.41
2016-04-13T00:53:27.557Z,1001.39
2016-04-13T00:54:10.510Z,1001.38
2016-04-13T00:54:53.528Z,1001.4
2016-04-13T00:55:36.468Z,1001.38
2016-04-13T00:56:19.437Z,1001.4
2016-04-13T00:57:02.393Z,1001.37
2016-04-13T00:57:45.349Z,1001.38
2016-04-13T00:58:28.304Z,1001.4
2016-04-13T00:59:11.273Z,1001.38
2016-04-13T00:59:54.229Z,1001.37
2016-04-13T01:00:37.185Z,1001.37
2016-04-13T01:01:20.076Z,1001.39
2016-04-13T01:02:02.968Z,1001.39
2016-04-13T01:02:45.846Z,1001.39
2016-04-13T01:03:28.755Z,1001.38
2016-04-13T01:04:11.662Z,1001.42
2016-04-13T01:04:54.539Z,1001.37
2016-04-13T01:05:37.448Z,1001.34
2016-04-13T01:06:20.339Z,1001.37
2016-04-13T01:07:03.232Z,1001.36
2016-04-13T01:07:46.110Z,1001.32
2016-04-13T01:08:29.004Z,1001.31
2016-04-13T01:09:11.879Z,1001.29
2016-04-13T01:09:54.772Z,1001.29
2016-04-13T01:10:37.649Z,1001.33
2016-04-13T01:11:20.524Z,1001.3
2016-04-13T01:12:03.401Z,1001.32
2016-04-13T01:12:46.316Z,1001.32
2016-04-13T01:13:29.208Z,1001.31
2016-04-13T01:14:12.068Z,1001.33
2016-04-13T01:14:54.945Z,1001.3
2016-04-13T01:15:37.823Z,1001.26
2016-04-13T01:16:20.698Z,1001.27
2016-04-13T01:17:03.576Z,1001.26
2016-04-13T01:17:46.453Z,1001.29
2016-04-13T01:18:29.362Z,1001.31
2016-04-13T01:19:12.221Z,1001.29
2016-04-13T01:19:55.099Z,1001.3
2016-04-13T01:20:37.977Z,1001.3
2016-04-13T01:21:20.883Z,1001.29
2016-04-13T01:22:02.996Z,1001.31
2016-04-13T01:22:45.877Z,1001.32
2016-04-13T01:23:28.755Z,1001.29
2016-04-13T01:24:11.677Z,1001.3
2016-04-13T01:24:54.570Z,1001.3
2016-04-13T01:25:37.463Z,1001.29
2016-04-13T01:26:20.369Z,1001.32
2016-04-13T01:27:03.247Z,1001.28
2016-04-13T01:27:46.125Z,1001.31
2016-04-13T01:28:29.033Z,1001.27
2016-04-13T01:29:11.908Z,1001.28
2016-04-13T01:29:54.818Z,1001.28
2016-04-13T01:30:37.696Z,1001.29
2016-04-13T01:31:20.571Z,1001.25
2016-04-13T01:32:03.463Z,1001.2
2016-04-13T01:32:46.357Z,1001.16
2016-04-13T01:33:29.235Z,1001.2
2016-04-13T01:34:12.188Z,1001.17
2016-04-13T01:34:55.065Z,1001.15
2016-04-13T01:35:37.943Z,1001.15
2016-04-13T01:36:20.818Z,1001.16
2016-04-13T01:37:03.570Z,1001.12
2016-04-13T01:37:46.448Z,1001.09
2016-04-13T01:38:29.342Z,1001.1
2016-04-13T01:39:12.201Z,1001.1
2016-04-13T01:39:55.079Z,1001.12
2016-04-13T01:40:37.957Z,1001.08
2016-04-13T01:41:20.816Z,1001.12
2016-04-13T01:42:02.928Z,1001.07
2016-04-13T01:42:45.806Z,1001.1
2016-04-13T01:43:28.699Z,1001.15
2016-04-13T01:44:11.574Z,1001.12
2016-04-13T01:44:54.468Z,1001.16
2016-04-13T01:45:37.173Z,1001.22
2016-04-13T01:46:19.907Z,1001.19
2016-04-13T01:47:02.848Z,1001.21
2016-04-13T01:47:45.742Z,1001.25
2016-04-13T01:48:28.634Z,1001.25
2016-04-13T01:49:11.509Z,1001.26
2016-04-13T01:49:54.387Z,1001.2
2016-04-13T01:50:37.280Z,1001.2
2016-04-13T01:51:20.155Z,1001.21
2016-04-13T01:52:03.111Z,1001.23
2016-04-13T01:52:45.989Z,1001.25
2016-04-13T01:53:28.882Z,1001.26
2016-04-13T01:54:11.600Z,1001.3
2016-04-13T01:54:54.521Z,1001.33
2016-04-13T01:55:37.441Z,1001.35
2016-04-13T01:56:20.331Z,1001.34
2016-04-13T01:57:03.252Z,1001.38
2016-04-13T01:57:46.174Z,1001.4
2016-04-13T01:58:28.937Z,1001.43
2016-04-13T01:59:11.828Z,1001.51
2016-04-13T01:59:54.821Z,1001.52
2016-04-13T02:00:37.744Z,1001.54
2016-04-13T02:01:20.650Z,1001.6
2016-04-13T02:02:03.544Z,1001.61
2016-04-13T02:02:46.422Z,1001.63
2016-04-13T02:03:29.329Z,1001.62
2016-04-13T02:04:12.204Z,1001.65
2016-04-13T02:04:55.095Z,1001.67
2016-04-13T02:05:37.979Z,1001.65
2016-04-13T02:06:20.823Z,1001.63
2016-04-13T02:07:03.721Z,1001.67
2016-04-13T02:07:46.605Z,1001.64
2016-04-13T02:08:29.503Z,1001.65
2016-04-13T02:09:12.363Z,1001.64
2016-04-13T02:09:55.103Z,1001.65
2016-04-13T02:10:37.999Z,1001.6
2016-04-13T02:11:20.874Z,1001.61
2016-04-13T02:12:03.800Z,1001.63
2016-04-13T02:12:46.679Z,1001.64
2016-04-13T02:13:29.560Z,1001.65
2016-04-13T02:14:12.435Z,1001.67
2016-04-13T02:14:55.329Z,1001.71
2016-04-13T02:15:38.208Z,1001.76
2016-04-13T02:16:21.083Z,1001.77
2016-04-13T02:17:03.978Z,1001.82
2016-04-13T02:17:46.856Z,1001.83
2016-04-13T02:18:29.718Z,1001.84
2016-04-13T02:19:12.609Z,1001.92
2016-04-13T02:19:55.471Z,1001.9
2016-04-13T02:20:38.366Z,1001.91
2016-04-13T02:21:21.256Z,1001.89
2016-04-13T02:22:04.166Z,1001.87
2016-04-13T02:22:47.044Z,1001.92
2016-04-13T02:23:29.937Z,1001.87
2016-04-13T02:24:12.828Z,1001.86
2016-04-13T02:24:55.721Z,1001.85
2016-04-13T02:25:38.584Z,1001.87
2016-04-13T02:26:21.474Z,1001.88
2016-04-13T02:27:04.351Z,1001.89
2016-04-13T02:27:47.245Z,1001.91
2016-04-13T02:28:30.139Z,1001.9
2016-04-13T02:29:13.014Z,1001.93
2016-04-13T02:29:55.907Z,1001.91
2016-04-13T02:30:38.785Z,1001.91
2016-04-13T02:31:21.660Z,1001.93
2016-04-13T02:32:04.537Z,1001.92
2016-04-13T02:32:47.415Z,1001.95
2016-04-13T02:33:30.293Z,1001.97
2016-04-13T02:34:13.168Z,1001.92
2016-04-13T02:34:56.061Z,1001.95
2016-04-13T02:35:38.939Z,1001.91
2016-04-13T02:36:21.970Z,1001.89
2016-04-13T02:37:04.786Z,1001.87
2016-04-13T02:37:47.647Z,1001.84
2016-04-13T02:38:30.525Z,1001.86
2016-04-13T02:39:13.384Z,1001.85
2016-04-13T02:39:56.278Z,1001.89
2016-04-13T02:40:39.155Z,1001.83
2016-04-13T02:41:22.046Z,1001.89
2016-04-13T02:42:04.939Z,1001.91
2016-04-13T02:42:47.817Z,1001.96
2016-04-13T02:43:30.726Z,1001.92
2016-04-13T02:44:13.601Z,1001.95
2016-04-13T02:44:56.493Z,1001.92
2016-04-13T02:45:39.371Z,1001.94
2016-04-13T02:46:22.246Z,1001.94
2016-04-13T02:47:05.156Z,1001.89
2016-04-13T02:47:48.033Z,1001.92
2016-04-13T02:48:30.927Z,1001.9
2016-04-13T02:49:13.786Z,1001.92
2016-04-13T02:49:56.695Z,1001.95
2016-04-13T02:50:39.604Z,1001.94
2016-04-13T02:51:22.479Z,1001.95
2016-04-13T02:52:04.623Z,1001.93
2016-04-13T02:52:47.500Z,1001.94
2016-04-13T02:53:30.378Z,1001.95
2016-04-13T02:54:13.284Z,1001.99
2016-04-13T02:54:56.145Z,1001.96
2016-04-13T02:55:39.023Z,1001.95
2016-04-13T02:56:21.929Z,1001.95
2016-04-13T02:57:04.823Z,1001.94
2016-04-13T02:57:47.716Z,1001.91
2016-04-13T02:58:30.594Z,1001.95
2016-04-13T02:59:13.484Z,1001.97
2016-04-13T02:59:56.378Z,1001.96
2016-04-13T03:00:39.256Z,1002.01
2016-04-13T03:01:22.147Z,1001.99
2016-04-13T03:02:05.025Z,1002
2016-04-13T03:02:47.964Z,1002
2016-04-13T03:03:30.873Z,1002.02
2016-04-13T03:04:13.780Z,1002.05
2016-04-13T03:04:56.673Z,1002.04
2016-04-13T03:05:39.582Z,1002.09
2016-04-13T03:06:22.489Z,1002.09
2016-04-13T03:07:05.381Z,1002.1
2016-04-13T03:07:48.275Z,1002.09
2016-04-13T03:08:31.168Z,1002.13
2016-04-13T03:09:14.058Z,1002.12
2016-04-13T03:09:56.952Z,1002.11
2016-04-13T03:10:39.845Z,1002.09
2016-04-13T03:11:22.720Z,1002.1
2016-04-13T03:12:05.629Z,1002.13
2016-04-13T03:12:48.507Z,1002.01
2016-04-13T03:13:31.415Z,1002.01
2016-04-13T03:14:14.274Z,1002
2016-04-13T03:14:57.294Z,1002
2016-04-13T03:15:40.156Z,1001.99
2016-04-13T03:16:23.047Z,1001.98
2016-04-13T03:17:05.940Z,1001.95
2016-04-13T03:17:48.818Z,1001.91
2016-04-13T03:18:31.695Z,1001.93
2016-04-13T03:19:14.570Z,1001.94
2016-04-13T03:19:57.463Z,1001.9
2016-04-13T03:20:40.357Z,1001.97
2016-04-13T03:21:23.247Z,1001.93
2016-04-13T03:22:06.157Z,1001.95
2016-04-13T03:22:49.049Z,1001.97
2016-04-13T03:23:31.786Z,1002.01
2016-04-13T03:24:13.864Z,1002.02
2016-04-13T03:24:56.757Z,1001.98
2016-04-13T03:25:39.651Z,1002.01
2016-04-13T03:26:22.542Z,1001.96
2016-04-13T03:27:05.434Z,1001.97
2016-04-13T03:27:48.328Z,1001.91
2016-04-13T03:28:31.222Z,1001.9
2016-04-13T03:29:14.159Z,1001.92
2016-04-13T03:29:57.053Z,1001.88
2016-04-13T03:30:39.946Z,1001.87
2016-04-13T03:31:22.806Z,1001.85
2016-04-13T03:32:05.667Z,1001.86
2016-04-13T03:32:48.545Z,1001.85
2016-04-13T03:33:31.423Z,1001.87
2016-04-13T03:34:14.298Z,1001.89
2016-04-13T03:34:57.191Z,1001.9
2016-04-13T03:35:40.084Z,1001.87
2016-04-13T03:36:22.975Z,1001.87
2016-04-13T03:37:06.025Z,1001.88
2016-04-13T03:37:48.902Z,1001.86
2016-04-13T03:38:31.764Z,1001.83
2016-04-13T03:39:14.655Z,1001.8
2016-04-13T03:39:57.533Z,1001.83
2016-04-13T03:40:40.446Z,1001.79
2016-04-13T03:41:23.337Z,1001.74
2016-04-13T03:42:06.199Z,1001.78
2016-04-13T03:42:49.060Z,1001.71
2016-04-13T03:43:31.924Z,1001.71
2016-04-13T03:44:14.814Z,1001.69
2016-04-13T03:44:57.691Z,1001.72
2016-04-13T03:45:40.569Z,1001.71
2016-04-13T03:46:23.460Z,1001.67
2016-04-13T03:47:06.337Z,1001.68
2016-04-13T03:47:49.199Z,1001.68
2016-04-13T03:48:32.077Z,1001.68
2016-04-13T03:49:14.952Z,1001.68
2016-04-13T03:49:57.829Z,1001.67
2016-04-13T03:50:40.723Z,1001.65
2016-04-13T03:51:23.645Z,1001.7
2016-04-13T03:52:06.429Z,1001.65
2016-04-13T03:52:49.322Z,1001.66
2016-04-13T03:53:32.262Z,1001.65
2016-04-13T03:54:15.168Z,1001.67
2016-04-13T03:54:58.046Z,1001.66
2016-04-13T03:55:40.940Z,1001.66
2016-04-13T03:56:23.815Z,1001.64
2016-04-13T03:57:06.723Z,1001.65
2016-04-13T03:57:49.617Z,1001.68
2016-04-13T03:58:32.526Z,1001.66
2016-04-13T03:59:15.401Z,1001.69
2016-04-13T03:59:58.326Z,1001.74
2016-04-13T04:00:41.203Z,1001.68
2016-04-13T04:01:24.078Z,1001.69
2016-04-13T04:02:06.956Z,1001.71
2016-04-13T04:02:49.849Z,1001.69
2016-04-13T04:03:32.727Z,1001.69
2016-04-13T04:04:15.602Z,1001.64
2016-04-13T04:04:58.480Z,1001.67
2016-04-13T04:05:41.372Z,1001.66
2016-04-13T04:06:24.247Z,1001.62
2016-04-13T04:07:07.172Z,1001.57
2016-04-13T04:07:50.050Z,1001.59
2016-04-13T04:08:32.913Z,1001.59
2016-04-13T04:09:16.928Z,1001.51
2016-04-13T04:09:59.821Z,1001.56
2016-04-13T04:10:42.902Z,1001.53
2016-04-13T04:11:25.793Z,1001.54
2016-04-13T04:12:08.686Z,1001.54
2016-04-13T04:12:51.705Z,1001.54
2016-04-13T04:13:34.645Z,1001.53
2016-04-13T04:14:17.520Z,1001.57
2016-04-13T04:15:00.491Z,1001.58
2016-04-13T04:15:43.369Z,1001.57
2016-04-13T04:16:26.400Z,1001.57
2016-04-13T04:17:09.480Z,1001.58
2016-04-13T04:17:52.390Z,1001.56
2016-04-13T04:18:35.486Z,1001.61
2016-04-13T04:19:18.424Z,1001.59
2016-04-13T04:20:01.363Z,1001.59
2016-04-13T04:20:44.320Z,1001.57
2016-04-13T04:21:27.413Z,1001.57
2016-04-13T04:22:10.243Z,1001.57
2016-04-13T04:22:53.137Z,1001.61
2016-04-13T04:23:36.015Z,1001.58
2016-04-13T04:24:18.906Z,1001.56
2016-04-13T04:25:01.893Z,1001.57
2016-04-13T04:25:44.786Z,1001.55
2016-04-13T04:26:27.801Z,1001.58
2016-04-13T04:27:10.679Z,1001.53
2016-04-13T04:27:53.620Z,1001.53
2016-04-13T04:28:36.607Z,1001.54
2016-04-13T04:29:19.701Z,1001.57
2016-04-13T04:30:02.562Z,1001.52
2016-04-13T04:30:45.472Z,1001.58
2016-04-13T04:31:28.347Z,1001.59
2016-04-13T04:32:11.225Z,1001.57
2016-04-13T04:32:54.134Z,1001.58
2016-04-13T04:33:37.011Z,1001.59
2016-04-13T04:34:19.886Z,1001.56
2016-04-13T04:35:02.748Z,1001.52
2016-04-13T04:35:45.641Z,1001.51
2016-04-13T04:36:28.531Z,1001.53
2016-04-13T04:37:11.659Z,1001.51
2016-04-13T04:37:56.991Z,1001.53
2016-04-13T04:38:39.430Z,1001.51
2016-04-13T04:39:22.711Z,1001.5
2016-04-13T04:40:06.183Z,1001.49
2016-04-13T04:40:48.967Z,1001.51
2016-04-13T04:41:31.986Z,1001.5
2016-04-13T04:42:14.986Z,1001.45
2016-04-13T04:42:57.911Z,1001.52
2016-04-13T04:43:40.803Z,1001.47
2016-04-13T04:44:23.803Z,1001.48
2016-04-13T04:45:06.791Z,1001.46
2016-04-13T04:45:49.777Z,1001.48
2016-04-13T04:46:32.749Z,1001.51
2016-04-13T04:47:15.671Z,1001.49
2016-04-13T04:47:58.938Z,1001.47
2016-04-13T04:48:41.848Z,1001.49
2016-04-13T04:49:24.801Z,1001.5
2016-04-13T04:50:07.694Z,1001.47
2016-04-13T04:50:50.572Z,1001.5
2016-04-13T04:51:33.481Z,1001.44
2016-04-13T04:52:16.543Z,1001.44
2016-04-13T04:52:59.406Z,1001.45
2016-04-13T04:53:42.298Z,1001.45
2016-04-13T04:54:25.173Z,1001.41
2016-04-13T04:55:08.067Z,1001.42
2016-04-13T04:55:50.929Z,1001.4
2016-04-13T04:56:33.823Z,1001.4
2016-04-13T04:57:16.698Z,1001.43
2016-04-13T04:57:59.591Z,1001.38
2016-04-13T04:58:42.579Z,1001.4
2016-04-13T04:59:25.688Z,1001.36
2016-04-13T05:00:08.706Z,1001.35
2016-04-13T05:00:51.693Z,1001.35
2016-04-13T05:01:35.101Z,1001.31
2016-04-13T05:02:18.039Z,1001.31
2016-04-13T05:03:00.917Z,1001.3
2016-04-13T05:03:43.748Z,1001.3
2016-04-13T05:04:26.654Z,1001.3
2016-04-13T05:05:09.844Z,1001.31
2016-04-13T05:05:52.925Z,1001.32
2016-04-13T05:06:35.944Z,1001.31
2016-04-13T05:07:19.100Z,1001.32
2016-04-13T05:08:02.086Z,1001.32
2016-04-13T05:08:44.980Z,1001.32
2016-04-13T05:09:27.886Z,1001.36
2016-04-13T05:10:10.764Z,1001.36
2016-04-13T05:10:53.689Z,1001.36
2016-04-13T05:11:36.707Z,1001.41
2016-04-13T05:12:19.613Z,1001.39
2016-04-13T05:13:02.585Z,1001.39
2016-04-13T05:13:45.602Z,1001.4
2016-04-13T05:14:28.524Z,1001.41
2016-04-13T05:15:11.277Z,1001.41
2016-04-13T05:15:54.201Z,1001.46
2016-04-13T05:16:37.126Z,1001.41
2016-04-13T05:17:20.095Z,1001.45
2016-04-13T05:18:03.082Z,1001.44
2016-04-13T05:18:46.147Z,1001.43
2016-04-13T05:19:29.476Z,1001.41
2016-04-13T05:20:12.510Z,1001.46
2016-04-13T05:20:55.402Z,1001.43
2016-04-13T05:21:38.313Z,1001.4
2016-04-13T05:22:21.172Z,1001.42
2016-04-13T05:23:04.095Z,1001.44
2016-04-13T05:23:46.957Z,1001.39
2016-04-13T05:24:29.832Z,1001.41
2016-04-13T05:25:12.742Z,1001.42
2016-04-13T05:25:55.620Z,1001.42
2016-04-13T05:26:38.498Z,1001.43
2016-04-13T05:27:21.373Z,1001.45
2016-04-13T05:28:04.250Z,1001.45
2016-04-13T05:28:47.128Z,1001.45
2016-04-13T05:29:30.003Z,1001.49
2016-04-13T05:30:12.912Z,1001.51
2016-04-13T05:30:55.820Z,1001.51
2016-04-13T05:31:38.761Z,1001.52
2016-04-13T05:32:21.620Z,1001.49
2016-04-13T05:33:04.544Z,1001.51
2016-04-13T05:33:47.438Z,1001.52
2016-04-13T05:34:30.298Z,1001.51
2016-04-13T05:35:13.175Z,1001.48
2016-04-13T05:35:56.037Z,1001.48
2016-04-13T05:36:38.930Z,1001.47
2016-04-13T05:37:21.867Z,1001.49
2016-04-13T05:38:04.777Z,1001.46
2016-04-13T05:38:47.700Z,1001.42
2016-04-13T05:39:30.591Z,1001.38
2016-04-13T05:40:13.470Z,1001.44
2016-04-13T05:40:56.363Z,1001.41
2016-04-13T05:41:39.241Z,1001.39
2016-04-13T05:42:22.131Z,1001.38
2016-04-13T05:43:05.008Z,1001.33
2016-04-13T05:43:47.902Z,1001.37
2016-04-13T05:44:30.777Z,1001.34
2016-04-13T05:45:13.671Z,1001.35
2016-04-13T05:45:56.563Z,1001.34
2016-04-13T05:46:39.441Z,1001.32
2016-04-13T05:47:22.379Z,1001.33
2016-04-13T05:48:05.257Z,1001.34
2016-04-13T05:48:48.165Z,1001.27
2016-04-13T05:49:31.102Z,1001.27
2016-04-13T05:50:13.980Z,1001.25
2016-04-13T05:50:56.874Z,1001.21
2016-04-13T05:51:39.767Z,1001.23
2016-04-13T05:52:22.673Z,1001.25
2016-04-13T05:53:05.551Z,1001.21
2016-04-13T05:53:48.446Z,1001.22
2016-04-13T05:54:31.321Z,1001.18
2016-04-13T05:55:14.213Z,1001.19
2016-04-13T05:55:57.090Z,1001.2
2016-04-13T05:56:39.984Z,1001.16
2016-04-13T05:57:22.859Z,1001.17
2016-04-13T05:58:05.768Z,1001.13
2016-04-13T05:58:48.662Z,1001.12
2016-04-13T05:59:31.537Z,1001.14
2016-04-13T06:00:14.461Z,1001.13
2016-04-13T06:00:57.339Z,1001.1
2016-04-13T06:01:40.232Z,1001.12
2016-04-13T06:02:23.123Z,1001.14
2016-04-13T06:03:06.015Z,1001.11
2016-04-13T06:03:48.893Z,1001.12
2016-04-13T06:04:31.753Z,1001.14
2016-04-13T06:05:14.661Z,1001.15
2016-04-13T06:05:57.587Z,1001.17
2016-04-13T06:06:40.323Z,1001.17
2016-04-13T06:07:23.245Z,1001.18
2016-04-13T06:08:06.139Z,1001.15
2016-04-13T06:08:49.032Z,1001.16
2016-04-13T06:09:31.923Z,1001.16
2016-04-13T06:10:14.816Z,1001.18
2016-04-13T06:10:57.725Z,1001.15
2016-04-13T06:11:40.603Z,1001.13
2016-04-13T06:12:23.494Z,1001.16
2016-04-13T06:13:06.387Z,1001.15
2016-04-13T06:13:49.295Z,1001.19
2016-04-13T06:14:32.202Z,1001.18
2016-04-13T06:15:15.079Z,1001.14
2016-04-13T06:15:57.988Z,1001.12
2016-04-13T06:16:40.882Z,1001.15
2016-04-13T06:17:23.788Z,1001.11
2016-04-13T06:18:06.649Z,1001.15
2016-04-13T06:18:49.543Z,1001.13
2016-04-13T06:19:32.433Z,1001.14
2016-04-13T06:20:15.311Z,1001.14
2016-04-13T06:20:58.189Z,1001.1
2016-04-13T06:21:41.098Z,1001.11
2016-04-13T06:22:24.004Z,1001.12
2016-04-13T06:23:06.899Z,1001.11
2016-04-13T06:23:49.838Z,1001.13
2016-04-13T06:24:32.744Z,1001.15
2016-04-13T07:48:34.422Z,1001.43
2016-04-13T07:49:17.300Z,1001.38
2016-04-13T07:50:00.194Z,1001.39
2016-04-13T07:50:43.056Z,1001.38
2016-04-13T07:51:25.963Z,1001.4
2016-04-13T07:52:08.903Z,1001.41
2016-04-13T07:52:52.015Z,1001.39
2016-04-13T07:53:34.905Z,1001.42
2016-04-13T07:54:17.799Z,1001.39
2016-04-13T07:55:00.535Z,1001.42
2016-04-13T07:55:43.413Z,1001.41
2016-04-13T07:56:26.319Z,1001.38
2016-04-13T07:57:09.197Z,1001.36
2016-04-13T07:57:52.090Z,1001.36
2016-04-13T07:58:34.981Z,1001.35
2016-04-13T07:59:17.875Z,1001.36
2016-04-13T08:00:00.752Z,1001.38
2016-04-13T08:00:43.646Z,1001.36
2016-04-13T08:01:26.537Z,1001.37
2016-04-13T08:02:09.461Z,1001.4
2016-04-13T08:02:52.370Z,1001.4
2016-04-13T08:03:35.245Z,1001.4
2016-04-13T08:04:18.138Z,1001.43
2016-04-13T08:05:01.015Z,1001.41
2016-04-13T08:05:43.925Z,1001.4
2016-04-13T08:06:26.659Z,1001.44
2016-04-13T08:07:09.537Z,1001.36
2016-04-13T08:07:52.664Z,1001.39
2016-04-13T08:08:35.559Z,1001.35
2016-04-13T08:09:18.469Z,1001.35
2016-04-13T08:10:01.361Z,1001.35
2016-04-13T08:10:44.255Z,1001.38
2016-04-13T08:11:27.146Z,1001.4
2016-04-13T08:12:10.039Z,1001.36
2016-04-13T08:12:52.932Z,1001.37
2016-04-13T08:13:35.666Z,1001.41
2016-04-13T08:14:18.545Z,1001.35
2016-04-13T08:15:01.422Z,1001.33
2016-04-13T08:15:44.316Z,1001.32
2016-04-13T08:16:27.222Z,1001.35
2016-04-13T08:17:10.116Z,1001.31
2016-04-13T08:17:53.008Z,1001.36
2016-04-13T08:18:35.899Z,1001.37
2016-04-13T08:19:18.793Z,1001.4
2016-04-13T08:20:01.686Z,1001.37
2016-04-13T08:20:44.563Z,1001.39
2016-04-13T08:21:27.469Z,1001.39
2016-04-13T08:22:10.363Z,1001.36
2016-04-13T08:22:53.163Z,1001.39
2016-04-13T08:23:36.069Z,1001.34
2016-04-13T08:24:18.666Z,1001.32
2016-04-13T08:25:01.560Z,1001.36
2016-04-13T08:25:44.468Z,1001.34
2016-04-13T08:26:27.343Z,1001.34
2016-04-13T08:27:10.252Z,1001.38
2016-04-13T08:27:53.160Z,1001.43
2016-04-13T08:28:36.051Z,1001.39
2016-04-13T08:29:18.960Z,1001.42
2016-04-13T08:30:01.885Z,1001.44
2016-04-13T08:30:44.825Z,1001.41
2016-04-13T08:31:27.700Z,1001.45
2016-04-13T08:32:10.624Z,1001.46
2016-04-13T08:32:53.517Z,1001.54
2016-04-13T08:33:36.423Z,1001.54
2016-04-13T08:34:19.286Z,1001.53
2016-04-13T08:35:02.179Z,1001.54
2016-04-13T08:35:45.056Z,1001.5
2016-04-13T08:36:27.963Z,1001.43
2016-04-13T08:37:10.857Z,1001.47
2016-04-13T08:37:53.719Z,1001.47
2016-04-13T08:38:36.625Z,1001.42
2016-04-13T08:39:19.534Z,1001.44
2016-04-13T08:40:02.427Z,1001.4
2016-04-13T08:40:45.320Z,1001.54
2016-04-13T08:41:28.211Z,1001.59
2016-04-13T08:42:11.105Z,1001.54
2016-04-13T08:42:53.982Z,1001.57
2016-04-13T08:43:36.906Z,1001.53
2016-04-13T08:44:19.797Z,1001.58
2016-04-13T08:45:02.705Z,1001.55
2016-04-13T08:45:45.599Z,1001.58
2016-04-13T08:46:28.490Z,1001.58
2016-04-13T08:47:11.383Z,1001.55
2016-04-13T08:47:54.308Z,1001.58
2016-04-13T08:48:37.217Z,1001.54
2016-04-13T08:49:20.108Z,1001.54
2016-04-13T08:50:02.845Z,1001.53
2016-04-13T08:50:45.738Z,1001.47
2016-04-13T08:51:28.660Z,1001.53
2016-04-13T08:52:11.569Z,1001.51
2016-04-13T08:52:54.399Z,1001.51
2016-04-13T08:53:37.293Z,1001.49
2016-04-13T08:54:20.199Z,1001.54
2016-04-13T08:55:03.077Z,1001.49
2016-04-13T08:55:45.986Z,1001.49
2016-04-13T08:56:28.893Z,1001.55
2016-04-13T08:57:11.786Z,1001.56
2016-04-13T08:57:54.694Z,1001.56
2016-04-13T08:58:37.588Z,1001.53
2016-04-13T08:59:20.510Z,1001.54
2016-04-13T09:00:03.403Z,1001.54
2016-04-13T09:00:46.296Z,1001.54
2016-04-13T09:01:29.187Z,1001.52
2016-04-13T09:02:12.080Z,1001.51
2016-04-13T09:02:54.973Z,1001.52
2016-04-13T09:03:37.882Z,1001.49
2016-04-13T09:04:20.804Z,1001.48
2016-04-13T09:05:03.697Z,1001.5
2016-04-13T09:05:46.575Z,1001.49
2016-04-13T09:06:29.465Z,1001.48
2016-04-13T09:07:12.390Z,1001.46
2016-04-13T09:07:55.409Z,1001.51
2016-04-13T09:08:38.333Z,1001.46
2016-04-13T09:09:21.239Z,1001.48
2016-04-13T09:10:04.133Z,1001.46
2016-04-13T09:10:47.011Z,1001.42
2016-04-13T09:11:29.901Z,1001.38
2016-04-13T09:12:12.810Z,1001.39
2016-04-13T09:12:55.719Z,1001.38
2016-04-13T09:13:38.659Z,1001.34
2016-04-13T09:14:21.550Z,1001.38
2016-04-13T09:15:04.428Z,1001.38
2016-04-13T09:15:47.321Z,1001.38
2016-04-13T09:16:30.211Z,1001.36
2016-04-13T09:17:13.120Z,1001.4
2016-04-13T09:17:56.013Z,1001.43
2016-04-13T09:18:38.922Z,1001.4
2016-04-13T09:19:21.797Z,1001.4
2016-04-13T09:20:04.691Z,1001.4
2016-04-13T09:20:47.600Z,1001.42
2016-04-13T09:21:30.475Z,1001.43
2016-04-13T09:22:13.353Z,1001.43
2016-04-13T09:22:56.355Z,1001.44
2016-04-13T09:23:39.249Z,1001.51
2016-04-13T09:24:22.139Z,1001.43
2016-04-13T09:25:04.891Z,1001.47
2016-04-13T09:25:47.785Z,1001.41
2016-04-13T09:26:30.660Z,1001.4
2016-04-13T09:27:13.538Z,1001.45
2016-04-13T09:27:56.432Z,1001.42
2016-04-13T09:28:39.325Z,1001.38
2016-04-13T09:29:22.232Z,1001.37
2016-04-13T09:30:05.109Z,1001.37
2016-04-13T09:30:48.002Z,1001.33
2016-04-13T09:31:31.502Z,1001.36
2016-04-13T09:32:14.395Z,1001.35
2016-04-13T09:32:57.288Z,1001.33
2016-04-13T09:33:40.212Z,1001.37
2016-04-13T09:34:23.087Z,1001.36
2016-04-13T09:35:05.981Z,1001.35
2016-04-13T09:35:48.875Z,1001.39
2016-04-13T09:36:31.765Z,1001.41
2016-04-13T09:37:14.658Z,1001.42
2016-04-13T09:37:57.599Z,1001.36
2016-04-13T09:38:40.492Z,1001.36
2016-04-13T09:39:23.383Z,1001.37
2016-04-13T09:40:06.276Z,1001.35
2016-04-13T09:40:49.169Z,1001.34
2016-04-13T09:41:32.059Z,1001.33
2016-04-13T09:42:14.969Z,1001.28
2016-04-13T09:42:57.847Z,1001.29
2016-04-13T09:43:40.739Z,1001.33
2016-04-13T09:44:23.614Z,1001.34
2016-04-13T09:45:06.524Z,1001.35
2016-04-13T09:45:49.433Z,1001.38
2016-04-13T09:46:32.323Z,1001.37
2016-04-13T09:47:15.216Z,1001.36
2016-04-13T09:47:58.110Z,1001.36
2016-04-13T09:48:41.003Z,1001.34
2016-04-13T09:49:23.894Z,1001.32
2016-04-13T09:50:06.803Z,1001.37
2016-04-13T09:50:49.681Z,1001.34
2016-04-13T09:51:32.572Z,1001.34
2016-04-13T09:52:15.464Z,1001.37
2016-04-13T09:52:58.249Z,1001.36
2016-04-13T09:53:41.157Z,1001.36
2016-04-13T09:54:24.025Z,1001.39
2016-04-13T09:55:07.478Z,1001.38
2016-04-13T09:55:50.376Z,1001.33
2016-04-13T09:56:33.532Z,1001.35
2016-04-13T09:57:16.129Z,1001.34
2016-04-13T09:57:58.772Z,1001.33
2016-04-13T09:58:41.775Z,1001.33
2016-04-13T09:59:24.666Z,1001.33
2016-04-13T10:00:07.552Z,1001.37
2016-04-13T10:00:50.458Z,1001.35
2016-04-13T10:01:33.458Z,1001.38
2016-04-13T10:02:16.367Z,1001.37
2016-04-13T10:02:59.464Z,1001.37
